Crescent Beach, Washington
Current Conditions -  °F | °C
As of 6:53 PM on Sunday 21 Dec 2014 (Local Time) from KCLM Reporting Station
Clear Clear  
Wind Chill: 45°   Ceiling: Unl
Heat Index: 49°   Visibility: 10mi
Dew Point: 41°   Wind: 9mph
Humidity: 74%   Direction: 280°W
Pressure: 30.04"   Gusts: NA
Location:  48.1359°N, 123.734°W
Report Text: KCLM 220253Z AUTO 28008KT 10SM CLR 09/05 A3004 RMK AO2 SLP173 T00940050 51010 TSNO $
Loading
Personal Weather Stations






























Interactive Weather Map New forecast layout! Learn more

10-Day Weather Forecast

Advertisements
Track Severe Weather on mobile